createdAt,value
2024-02-13T00:00:05.198Z,45.17
2024-02-13T00:02:39.187Z,45.14
2024-02-13T00:05:11.746Z,45.20
2024-02-13T00:07:45.205Z,45.16
2024-02-13T00:10:19.079Z,45.19
2024-02-13T00:12:52.231Z,45.13
2024-02-13T00:15:26.261Z,45.08
2024-02-13T00:17:59.117Z,45.17
2024-02-13T00:20:32.393Z,45.29
2024-02-13T00:23:06.147Z,45.35
2024-02-13T00:25:39.206Z,45.31
2024-02-13T00:28:13.062Z,45.37
2024-02-13T00:30:46.247Z,44.97
2024-02-13T00:33:19.275Z,45.30
2024-02-13T00:35:52.265Z,45.10
2024-02-13T00:38:25.115Z,45.28
2024-02-13T00:40:58.321Z,45.11
2024-02-13T00:43:32.019Z,45.30
2024-02-13T00:46:05.222Z,45.24
2024-02-13T00:48:38.286Z,45.36
2024-02-13T00:51:11.215Z,45.51
2024-02-13T00:53:44.364Z,45.42
2024-02-13T00:56:18.097Z,45.30
2024-02-13T00:58:51.243Z,45.35
2024-02-13T01:01:24.198Z,45.31
2024-02-13T01:03:57.217Z,45.29
2024-02-13T01:06:30.195Z,45.23
2024-02-13T01:09:03.094Z,45.26
2024-02-13T01:11:36.312Z,45.30
2024-02-13T01:14:09.085Z,45.22
2024-02-13T01:16:42.389Z,45.25
2024-02-13T01:19:15.895Z,45.22
2024-02-13T01:21:49.238Z,45.14
2024-02-13T01:24:22.090Z,45.19
2024-02-13T01:26:55.278Z,45.09
2024-02-13T01:29:28.289Z,45.04
2024-02-13T01:32:01.260Z,44.99
2024-02-13T01:34:34.369Z,45.07
2024-02-13T01:37:08.322Z,44.80
2024-02-13T01:39:41.277Z,44.99
2024-02-13T01:42:14.001Z,45.03
2024-02-13T01:44:47.369Z,44.96
2024-02-13T01:47:20.186Z,45.01
2024-02-13T01:49:53.316Z,44.95
2024-02-13T01:52:26.468Z,44.99
2024-02-13T01:55:00.289Z,44.99
2024-02-13T01:57:33.285Z,44.95
2024-02-13T02:00:06.613Z,44.98
2024-02-13T02:02:40.453Z,44.97
2024-02-13T02:05:14.356Z,44.94
2024-02-13T02:07:47.382Z,44.89
2024-02-13T02:10:21.193Z,44.93
2024-02-13T02:12:54.144Z,44.90
2024-02-13T02:15:27.186Z,44.81
2024-02-13T02:18:00.426Z,44.62
2024-02-13T02:20:33.167Z,44.96
2024-02-13T02:23:06.339Z,44.96
2024-02-13T02:25:39.252Z,44.87
2024-02-13T02:28:12.168Z,44.93
2024-02-13T02:30:45.377Z,44.81
2024-02-13T02:33:19.124Z,44.89
2024-02-13T02:35:52.793Z,44.88
2024-02-13T02:38:26.243Z,44.79
2024-02-13T02:40:59.430Z,44.81
2024-02-13T02:43:33.318Z,44.81
2024-02-13T02:46:06.261Z,44.80
2024-02-13T02:48:39.260Z,44.68
2024-02-13T02:51:12.439Z,44.78
2024-02-13T02:53:46.430Z,44.76
2024-02-13T02:56:19.050Z,44.70
2024-02-13T02:58:52.439Z,44.67
2024-02-13T03:01:26.487Z,44.65
2024-02-13T03:04:00.485Z,44.63
2024-02-13T03:06:33.642Z,44.74
2024-02-13T03:09:07.376Z,44.67
2024-02-13T03:11:40.317Z,44.57
2024-02-13T03:14:13.487Z,44.72
2024-02-13T03:16:47.411Z,44.57
2024-02-13T03:19:20.393Z,44.55
2024-02-13T03:21:53.489Z,44.62
2024-02-13T03:24:27.486Z,44.55
2024-02-13T03:27:01.434Z,44.64
2024-02-13T03:29:34.498Z,44.63
2024-02-13T03:32:07.456Z,44.64
2024-02-13T03:34:41.489Z,44.55
2024-02-13T03:37:14.514Z,44.59
2024-02-13T03:39:48.426Z,44.68
2024-02-13T03:42:21.307Z,44.68
2024-02-13T03:44:54.706Z,44.63
2024-02-13T03:47:28.321Z,44.68
2024-02-13T03:50:01.515Z,44.63
2024-02-13T03:52:35.546Z,44.55
2024-02-13T03:55:09.449Z,44.57
2024-02-13T03:57:42.190Z,44.61
2024-02-13T04:00:15.443Z,44.56
2024-02-13T04:02:48.633Z,44.51
2024-02-13T04:05:22.436Z,44.36
2024-02-13T04:07:55.539Z,44.45
2024-02-13T04:10:28.349Z,44.38
2024-02-13T04:13:01.482Z,44.39
2024-02-13T04:15:34.323Z,44.20
2024-02-13T04:18:07.679Z,44.34
2024-02-13T04:20:40.600Z,44.28
2024-02-13T04:23:14.763Z,44.11
2024-02-13T04:25:48.516Z,44.18
2024-02-13T04:28:21.372Z,44.15
2024-02-13T04:30:54.489Z,44.16
2024-02-13T04:33:27.565Z,44.13
2024-02-13T04:36:00.575Z,44.09
2024-02-13T04:38:34.672Z,44.07
2024-02-13T04:41:08.603Z,44.19
2024-02-13T04:43:42.582Z,44.19
2024-02-13T04:46:15.669Z,44.23
2024-02-13T04:48:49.520Z,44.18
2024-02-13T04:51:22.255Z,44.21
2024-02-13T04:53:55.403Z,44.03
2024-02-13T04:56:28.348Z,44.14
2024-02-13T04:59:01.328Z,44.13
2024-02-13T05:01:34.156Z,44.03
2024-02-13T05:04:07.520Z,44.09
2024-02-13T05:06:40.249Z,44.02
2024-02-13T05:09:13.589Z,44.06
2024-02-13T05:11:46.383Z,43.84
2024-02-13T05:14:19.559Z,44.02
2024-02-13T05:16:53.611Z,44.06
2024-02-13T05:19:26.569Z,44.02
2024-02-13T05:21:59.704Z,43.88
2024-02-13T05:24:33.703Z,44.02
2024-02-13T05:27:07.405Z,43.97
2024-02-13T05:29:40.459Z,43.91
2024-02-13T05:32:13.472Z,43.80
2024-02-13T05:34:46.421Z,43.92
2024-02-13T05:37:19.640Z,43.94
2024-02-13T05:39:52.913Z,43.93
2024-02-13T05:42:26.524Z,43.89
2024-02-13T05:44:59.602Z,43.96
2024-02-13T05:47:32.542Z,43.95
2024-02-13T05:50:05.671Z,43.96
2024-02-13T05:52:39.663Z,43.80
2024-02-13T05:55:12.711Z,43.92
2024-02-13T05:57:46.754Z,43.97
2024-02-13T06:00:20.760Z,43.98
2024-02-13T06:02:54.737Z,43.92
2024-02-13T06:05:27.572Z,43.89
2024-02-13T06:08:00.553Z,43.91
2024-02-13T06:10:33.790Z,43.89
2024-02-13T06:13:07.617Z,43.83
2024-02-13T06:15:40.692Z,43.65
2024-02-13T06:18:13.741Z,43.69
2024-02-13T06:20:46.872Z,43.67
2024-02-13T06:23:20.702Z,43.72
2024-02-13T06:25:53.727Z,43.72
2024-02-13T06:28:26.609Z,43.72
2024-02-13T06:30:59.617Z,43.71
2024-02-13T06:33:32.776Z,43.64
2024-02-13T06:36:05.747Z,43.59
2024-02-13T06:38:39.916Z,43.59
2024-02-13T06:41:13.742Z,43.55
2024-02-13T06:43:46.813Z,43.52
2024-02-13T06:46:20.743Z,43.51
2024-02-13T06:48:53.876Z,43.49
2024-02-13T06:51:26.602Z,43.37
2024-02-13T06:53:59.912Z,43.35
2024-02-13T06:56:33.667Z,43.30
2024-02-13T06:59:06.663Z,43.37
2024-02-13T07:01:39.554Z,43.23
2024-02-13T07:04:12.589Z,43.36
2024-02-13T07:06:58.374Z,43.42
2024-02-13T07:09:18.808Z,43.36
2024-02-13T07:11:51.608Z,43.35
2024-02-13T07:14:26.279Z,43.41
2024-02-13T07:16:57.711Z,43.41
2024-02-13T07:19:30.905Z,43.41
2024-02-13T07:22:03.843Z,43.34
2024-02-13T07:24:37.856Z,43.48
2024-02-13T07:27:11.890Z,43.68
2024-02-13T07:29:45.883Z,43.89
2024-02-13T07:32:19.882Z,43.92
2024-02-13T07:34:53.919Z,43.93
2024-02-13T07:37:27.719Z,43.97
2024-02-13T07:40:00.852Z,44.08
2024-02-13T07:42:34.432Z,44.22
2024-02-13T07:45:07.856Z,44.30
2024-02-13T07:47:41.925Z,44.40
2024-02-13T07:50:15.892Z,44.43
2024-02-13T07:52:48.494Z,44.48
2024-02-13T07:55:21.744Z,44.54
2024-02-13T07:57:54.941Z,44.57
2024-02-13T08:00:28.768Z,44.56
2024-02-13T08:03:01.919Z,44.67
2024-02-13T08:05:35.917Z,44.71
2024-02-13T08:08:10.107Z,44.65
2024-02-13T08:10:41.824Z,44.59
2024-02-13T08:13:14.891Z,44.76
2024-02-13T08:15:47.884Z,44.67
2024-02-13T08:18:20.900Z,44.71
2024-02-13T08:20:53.951Z,44.72
2024-02-13T08:23:27.773Z,44.83
2024-02-13T08:26:00.764Z,44.94
2024-02-13T08:28:33.863Z,44.95
2024-02-13T08:31:06.974Z,44.92
2024-02-13T08:33:40.849Z,44.93
2024-02-13T08:36:13.888Z,44.99
2024-02-13T08:38:46.838Z,44.98
2024-02-13T08:41:19.674Z,44.94
2024-02-13T08:43:52.967Z,45.07
2024-02-13T08:46:25.825Z,45.14
2024-02-13T08:48:59.506Z,45.18
2024-02-13T08:51:36.577Z,45.10
2024-02-13T08:54:06.350Z,45.08
2024-02-13T08:56:39.838Z,45.20
2024-02-13T08:59:12.976Z,45.25
2024-02-13T09:01:45.528Z,45.25
2024-02-13T09:04:18.576Z,45.34
2024-02-13T09:06:51.829Z,45.32
2024-02-13T09:09:25.260Z,45.38
2024-02-13T09:11:59.129Z,45.33
2024-02-13T09:14:32.917Z,45.37
2024-02-13T09:17:05.977Z,45.38
2024-02-13T09:19:38.617Z,45.40
2024-02-13T09:22:12.112Z,45.39
2024-02-13T09:24:45.871Z,45.41
2024-02-13T09:27:18.626Z,45.40
2024-02-13T09:29:51.935Z,45.47
2024-02-13T09:32:25.076Z,45.45
2024-02-13T09:34:58.031Z,45.47
2024-02-13T09:37:30.868Z,45.53
2024-02-13T09:40:03.994Z,45.55
2024-02-13T09:42:36.863Z,45.53
2024-02-13T09:45:10.082Z,45.55
2024-02-13T09:47:43.401Z,45.61
2024-02-13T09:50:17.005Z,45.62
2024-02-13T09:52:50.185Z,45.60
2024-02-13T09:55:23.986Z,45.65
2024-02-13T09:57:57.119Z,45.73
2024-02-13T10:00:31.012Z,45.71
2024-02-13T10:03:04.137Z,45.72
2024-02-13T10:05:37.060Z,45.78
2024-02-13T10:08:09.885Z,45.77
2024-02-13T10:10:42.961Z,45.78
2024-02-13T10:13:16.069Z,45.82
2024-02-13T10:15:50.138Z,45.85
2024-02-13T10:18:23.852Z,45.88
2024-02-13T10:20:57.118Z,45.87
2024-02-13T10:23:30.051Z,45.89
2024-02-13T10:26:02.972Z,45.96
2024-02-13T10:28:35.987Z,45.94
2024-02-13T10:31:09.230Z,45.96
2024-02-13T10:33:42.372Z,46.00
2024-02-13T10:36:16.138Z,46.05
2024-02-13T10:38:49.252Z,46.02
2024-02-13T10:41:22.139Z,45.97
2024-02-13T10:43:55.138Z,46.00
2024-02-13T10:46:29.031Z,45.96
2024-02-13T10:49:02.249Z,46.04
2024-02-13T10:51:35.693Z,46.02
2024-02-13T10:54:09.010Z,46.02
2024-02-13T10:56:42.117Z,46.08
2024-02-13T10:59:15.254Z,46.11
2024-02-13T11:01:49.004Z,46.07
2024-02-13T11:04:26.169Z,46.05
2024-02-13T11:06:59.154Z,46.13
2024-02-13T11:09:32.062Z,46.11
2024-02-13T11:12:05.009Z,46.16
2024-02-13T11:14:38.041Z,46.19
2024-02-13T11:17:11.181Z,46.15
2024-02-13T11:19:46.291Z,46.16
2024-02-13T11:22:17.689Z,46.19
2024-02-13T11:24:51.211Z,46.19
2024-02-13T11:27:30.640Z,45.73
2024-02-13T11:30:02.972Z,45.07
2024-02-13T11:32:35.242Z,44.10
2024-02-13T11:35:08.359Z,43.80
2024-02-13T11:37:42.080Z,43.35
2024-02-13T11:40:15.118Z,43.26
2024-02-13T11:42:48.505Z,42.58
2024-02-13T11:45:22.079Z,42.66
2024-02-13T11:47:55.270Z,42.55
2024-02-13T11:50:27.864Z,42.46
2024-02-13T11:53:01.183Z,42.11
2024-02-13T11:55:33.841Z,41.92
2024-02-13T11:58:07.000Z,42.19
2024-02-13T12:00:40.127Z,42.81
2024-02-13T12:03:13.287Z,42.87
2024-02-13T12:05:47.249Z,43.03
2024-02-13T12:08:20.285Z,43.12
2024-02-13T12:10:53.389Z,43.29
2024-02-13T12:13:27.246Z,43.38
2024-02-13T12:16:00.841Z,43.52
2024-02-13T12:18:34.282Z,43.59
2024-02-13T12:21:07.068Z,43.70
2024-02-13T12:23:40.148Z,43.86
2024-02-13T12:26:13.178Z,43.96
2024-02-13T12:28:46.271Z,44.06
2024-02-13T12:31:20.116Z,44.14
2024-02-13T12:33:53.286Z,44.28
2024-02-13T12:36:26.181Z,44.34
2024-02-13T12:38:58.883Z,44.35
2024-02-13T12:41:32.060Z,44.40
2024-02-13T12:44:04.866Z,44.47
2024-02-13T12:46:37.963Z,44.57
2024-02-13T12:49:11.291Z,44.62
2024-02-13T12:51:43.898Z,44.70
2024-02-13T12:54:17.054Z,44.73
2024-02-13T12:56:50.159Z,44.64
2024-02-13T12:59:23.394Z,44.63
2024-02-13T13:01:56.128Z,44.73
2024-02-13T13:04:29.136Z,44.77
2024-02-13T13:07:01.961Z,44.80
2024-02-13T13:09:35.387Z,44.74
2024-02-13T13:12:10.321Z,44.82
2024-02-13T13:14:40.940Z,44.92
2024-02-13T13:17:14.159Z,44.96
2024-02-13T13:19:47.141Z,45.03
2024-02-13T13:22:20.290Z,45.01
2024-02-13T13:24:53.089Z,44.97
2024-02-13T13:27:26.128Z,44.96
2024-02-13T13:29:59.212Z,44.93
2024-02-13T13:32:32.085Z,44.93
2024-02-13T13:35:05.057Z,44.93
2024-02-13T13:37:38.164Z,44.91
2024-02-13T13:40:11.773Z,44.94
2024-02-13T13:42:44.953Z,44.96
2024-02-13T13:45:18.494Z,44.99
2024-02-13T13:47:52.395Z,45.00
2024-02-13T13:50:25.190Z,44.99
2024-02-13T13:52:57.978Z,45.06
2024-02-13T13:55:31.380Z,44.96
2024-02-13T13:58:04.121Z,44.94
2024-02-13T14:00:37.641Z,44.87
2024-02-13T14:03:11.235Z,44.86
2024-02-13T14:05:44.364Z,44.82
2024-02-13T14:08:17.503Z,44.84
2024-02-13T14:10:51.437Z,44.84
2024-02-13T14:13:25.245Z,44.87
2024-02-13T14:15:58.408Z,44.81
2024-02-13T14:18:31.399Z,44.86
2024-02-13T14:21:04.424Z,44.81
2024-02-13T14:23:37.304Z,44.85
2024-02-13T14:26:10.032Z,44.88
2024-02-13T14:28:43.354Z,44.91
2024-02-13T14:31:16.026Z,44.89
2024-02-13T14:33:49.136Z,44.94
2024-02-13T14:36:22.448Z,44.95
2024-02-13T14:38:55.369Z,44.97
2024-02-13T14:41:28.298Z,44.96
2024-02-13T14:44:01.284Z,44.97
2024-02-13T14:46:34.442Z,45.04
2024-02-13T14:49:07.575Z,45.01
2024-02-13T14:51:40.353Z,44.97
2024-02-13T14:54:13.603Z,44.95
2024-02-13T14:56:47.433Z,44.93
2024-02-13T14:59:20.750Z,44.93
2024-02-13T15:01:54.479Z,44.94
2024-02-13T15:04:27.348Z,44.97
2024-02-13T15:07:00.566Z,44.95
2024-02-13T15:09:33.317Z,44.96
2024-02-13T15:12:06.336Z,44.95
2024-02-13T15:14:39.511Z,44.96
2024-02-13T15:17:12.341Z,45.04
2024-02-13T15:19:45.468Z,45.09
2024-02-13T15:22:18.441Z,45.20
2024-02-13T15:24:51.417Z,45.28
2024-02-13T15:27:24.416Z,45.32
2024-02-13T15:29:57.615Z,45.35
2024-02-13T15:32:31.614Z,45.35
2024-02-13T15:35:05.587Z,45.38
2024-02-13T15:37:39.326Z,45.38
2024-02-13T15:40:12.668Z,45.38
2024-02-13T15:42:46.164Z,45.41
2024-02-13T15:45:19.486Z,45.44
2024-02-13T15:47:52.705Z,45.44
2024-02-13T15:50:25.443Z,45.46
2024-02-13T15:52:58.591Z,45.48
2024-02-13T15:55:31.876Z,45.53
2024-02-13T15:58:05.322Z,45.54
2024-02-13T16:00:38.628Z,45.50
2024-02-13T16:03:12.405Z,45.57
2024-02-13T16:05:45.426Z,45.64
2024-02-13T16:08:18.285Z,45.58
2024-02-13T16:10:51.427Z,45.66
2024-02-13T16:13:26.811Z,45.71
2024-02-13T16:15:57.582Z,45.68
2024-02-13T16:18:30.812Z,45.77
2024-02-13T16:21:04.434Z,45.77
2024-02-13T16:23:37.251Z,45.81
2024-02-13T16:26:10.405Z,45.83
2024-02-13T16:28:43.616Z,45.81
2024-02-13T16:31:16.472Z,45.86
2024-02-13T16:33:49.455Z,45.82
2024-02-13T16:36:22.472Z,45.89
2024-02-13T16:38:55.914Z,45.91
2024-02-13T16:41:29.408Z,45.94
2024-02-13T16:44:02.473Z,45.94
2024-02-13T16:46:35.325Z,46.00
2024-02-13T16:49:08.822Z,46.00
2024-02-13T16:51:42.463Z,46.05
2024-02-13T16:54:15.736Z,45.99
2024-02-13T16:56:49.316Z,45.97
2024-02-13T16:59:22.441Z,46.03
2024-02-13T17:01:55.471Z,45.97
2024-02-13T17:04:28.486Z,46.08
2024-02-13T17:07:01.873Z,46.13
2024-02-13T17:09:34.750Z,46.04
2024-02-13T17:12:08.496Z,46.08
2024-02-13T17:14:41.624Z,46.08
2024-02-13T17:17:17.522Z,46.08
2024-02-13T17:19:47.601Z,46.14
2024-02-13T17:22:20.654Z,46.17
2024-02-13T17:24:53.610Z,46.22
2024-02-13T17:27:26.543Z,46.27
2024-02-13T17:29:59.530Z,46.31
2024-02-13T17:32:32.648Z,46.34
2024-02-13T17:35:05.789Z,46.37
2024-02-13T17:37:38.417Z,46.42
2024-02-13T17:40:11.353Z,46.34
2024-02-13T17:42:44.494Z,46.36
2024-02-13T17:45:17.300Z,46.46
2024-02-13T17:47:50.440Z,46.50
2024-02-13T17:50:23.772Z,46.36
2024-02-13T17:52:56.330Z,46.37
2024-02-13T17:55:29.434Z,46.32
2024-02-13T17:58:02.574Z,46.31
2024-02-13T18:00:35.932Z,46.33
2024-02-13T18:03:08.554Z,46.35
2024-02-13T18:05:41.503Z,46.33
2024-02-13T18:08:14.345Z,46.32
2024-02-13T18:10:47.413Z,46.24
2024-02-13T18:13:20.338Z,46.21
2024-02-13T18:15:53.357Z,46.21
2024-02-13T18:18:28.016Z,46.35
2024-02-13T18:20:59.911Z,46.30
2024-02-13T18:23:33.400Z,46.27
2024-02-13T18:26:06.414Z,46.24
2024-02-13T18:28:39.395Z,46.31
2024-02-13T18:31:12.722Z,46.37
2024-02-13T18:33:45.485Z,46.54
2024-02-13T18:36:18.695Z,46.67
2024-02-13T18:38:51.823Z,46.72
2024-02-13T18:41:24.890Z,46.75
2024-02-13T18:43:57.916Z,46.83
2024-02-13T18:46:31.764Z,46.88
2024-02-13T18:49:04.812Z,46.86
2024-02-13T18:51:37.726Z,46.87
2024-02-13T18:54:10.793Z,46.79
2024-02-13T18:56:43.836Z,46.83
2024-02-13T18:59:16.707Z,46.78
2024-02-13T19:01:49.413Z,46.73
2024-02-13T19:04:22.722Z,46.73
2024-02-13T19:06:55.536Z,46.72
2024-02-13T19:09:28.451Z,46.74
2024-02-13T19:12:01.509Z,46.66
2024-02-13T19:14:34.819Z,46.67
2024-02-13T19:17:07.515Z,46.67
2024-02-13T19:19:40.503Z,46.68
2024-02-13T19:22:13.880Z,46.67
2024-02-13T19:24:47.448Z,46.74
2024-02-13T19:27:20.788Z,46.67
2024-02-13T19:29:53.490Z,46.60
2024-02-13T19:32:26.610Z,46.62
2024-02-13T19:34:59.506Z,46.58
2024-02-13T19:37:32.902Z,46.60
2024-02-13T19:40:06.560Z,46.63
2024-02-13T19:42:39.512Z,46.58
2024-02-13T19:45:12.516Z,46.59
2024-02-13T19:47:45.624Z,46.51
2024-02-13T19:50:18.543Z,46.52
2024-02-13T19:52:51.620Z,46.54
2024-02-13T19:55:24.933Z,46.52
2024-02-13T19:57:58.771Z,46.47
2024-02-13T20:00:31.815Z,46.45
2024-02-13T20:03:04.557Z,46.48
2024-02-13T20:05:37.588Z,46.50
2024-02-13T20:08:10.861Z,46.46
2024-02-13T20:10:43.556Z,46.47
2024-02-13T20:13:16.812Z,46.45
2024-02-13T20:15:49.809Z,46.43
2024-02-13T20:18:23.078Z,46.42
2024-02-13T20:20:55.621Z,46.46
2024-02-13T20:23:28.921Z,46.49
2024-02-13T20:26:01.569Z,46.50
2024-02-13T20:28:34.896Z,46.46
2024-02-13T20:31:07.987Z,46.50
2024-02-13T20:33:40.728Z,46.52
2024-02-13T20:36:13.825Z,46.46
2024-02-13T20:38:46.625Z,46.47
2024-02-13T20:41:19.828Z,46.61
2024-02-13T20:43:52.726Z,46.49
2024-02-13T20:46:25.776Z,46.47
2024-02-13T20:48:58.718Z,46.48
2024-02-13T20:51:31.890Z,46.51
2024-02-13T20:54:04.913Z,46.50
2024-02-13T20:56:37.672Z,46.46
2024-02-13T20:59:10.964Z,46.53
2024-02-13T21:01:43.921Z,46.53
2024-02-13T21:04:17.047Z,46.54
2024-02-13T21:06:50.126Z,46.51
2024-02-13T21:09:24.003Z,46.52
2024-02-13T21:11:56.672Z,46.51
2024-02-13T21:14:30.233Z,46.54
2024-02-13T21:17:03.967Z,46.55
2024-02-13T21:19:36.874Z,46.52
2024-02-13T21:22:09.829Z,46.54
2024-02-13T21:24:42.633Z,46.53
2024-02-13T21:27:15.861Z,46.50
2024-02-13T21:29:48.694Z,46.50
2024-02-13T21:32:22.050Z,46.53
2024-02-13T21:34:54.719Z,46.55
2024-02-13T21:37:27.975Z,46.58
2024-02-13T21:40:00.793Z,46.52
2024-02-13T21:42:34.141Z,46.39
2024-02-13T21:45:07.990Z,46.02
2024-02-13T21:47:40.830Z,45.70
2024-02-13T21:50:14.147Z,45.40
2024-02-13T21:52:46.672Z,45.57
2024-02-13T21:55:20.045Z,45.37
2024-02-13T21:57:53.023Z,45.21
2024-02-13T22:00:25.907Z,45.07
2024-02-13T22:02:58.797Z,44.78
2024-02-13T22:05:31.953Z,45.02
2024-02-13T22:08:04.713Z,44.95
2024-02-13T22:10:37.992Z,44.68
2024-02-13T22:13:11.109Z,44.59
2024-02-13T22:15:44.177Z,44.41
2024-02-13T22:18:19.703Z,44.43
2024-02-13T22:20:50.995Z,44.35
2024-02-13T22:23:24.196Z,44.25
2024-02-13T22:25:57.750Z,44.29
2024-02-13T22:28:30.955Z,44.23
2024-02-13T22:31:04.046Z,44.28
2024-02-13T22:33:37.332Z,44.34
2024-02-13T22:36:11.239Z,44.15
2024-02-13T22:38:45.402Z,44.39
2024-02-13T22:41:19.172Z,44.34
2024-02-13T22:43:51.974Z,44.29
2024-02-13T22:46:26.366Z,44.31
2024-02-13T22:48:57.893Z,44.39
2024-02-13T22:51:31.075Z,44.21
2024-02-13T22:54:04.039Z,44.03
2024-02-13T22:56:37.234Z,44.00
2024-02-13T22:59:11.266Z,43.87
2024-02-13T23:01:45.293Z,44.20
2024-02-13T23:04:19.317Z,44.06
2024-02-13T23:06:53.262Z,44.18
2024-02-13T23:09:26.436Z,44.09
2024-02-13T23:12:00.163Z,44.14
2024-02-13T23:14:37.834Z,44.20
2024-02-13T23:17:06.115Z,44.43
2024-02-13T23:19:39.207Z,44.42
2024-02-13T23:22:12.320Z,44.40
2024-02-13T23:24:46.222Z,44.43
2024-02-13T23:27:19.451Z,44.48
2024-02-13T23:29:53.342Z,44.46
2024-02-13T23:32:27.382Z,44.46
2024-02-13T23:35:01.142Z,44.69
2024-02-13T23:37:34.010Z,44.64
2024-02-13T23:40:07.108Z,44.56
2024-02-13T23:42:40.257Z,44.56
2024-02-13T23:45:13.482Z,44.67
2024-02-13T23:47:47.360Z,44.69
2024-02-13T23:50:20.112Z,44.69
2024-02-13T23:52:53.120Z,44.67
2024-02-13T23:55:26.342Z,44.62
2024-02-13T23:58:00.206Z,44.54
